createdAt,value
2022-12-08T00:02:54.767Z,10.93
2022-12-08T00:06:15.409Z,8.55
2022-12-08T00:09:23.558Z,9.13
2022-12-08T00:12:27.676Z,10.17
2022-12-08T00:15:30.433Z,9.07
2022-12-08T00:18:33.345Z,8.97
2022-12-08T00:21:36.062Z,12.48
2022-12-08T00:24:40.687Z,9.17
2022-12-08T00:27:44.717Z,10.30
2022-12-08T00:30:47.538Z,11.60
2022-12-08T00:33:50.218Z,10.80
2022-12-08T00:36:52.903Z,11.13
2022-12-08T00:39:55.622Z,10.97
2022-12-08T00:42:59.874Z,10.23
2022-12-08T00:46:02.587Z,9.57
2022-12-08T00:49:05.738Z,10.83
2022-12-08T00:52:09.059Z,12.45
2022-12-08T00:55:11.740Z,8.80
2022-12-08T00:58:16.062Z,10.37
2022-12-08T01:01:18.890Z,11.00
2022-12-08T01:04:22.294Z,11.40
2022-12-08T01:07:25.176Z,8.90
2022-12-08T01:10:28.181Z,12.17
2022-12-08T01:13:32.166Z,12.90
2022-12-08T01:16:37.271Z,9.50
2022-12-08T01:19:40.423Z,8.73
2022-12-08T01:22:43.156Z,9.68
2022-12-08T01:25:46.092Z,11.23
2022-12-08T01:28:50.683Z,15.07
2022-12-08T01:31:53.353Z,11.50
2022-12-08T01:34:56.046Z,14.13
2022-12-08T01:37:58.980Z,9.80
2022-12-08T01:41:01.673Z,11.05
2022-12-08T01:44:44.589Z,9.83
2022-12-08T01:47:49.585Z,12.43
2022-12-08T01:50:52.850Z,11.10
2022-12-08T01:53:55.950Z,10.77
2022-12-08T01:57:02.636Z,10.57
2022-12-08T02:00:09.516Z,9.40
2022-12-08T02:03:15.786Z,10.70
2022-12-08T02:06:18.967Z,14.00
2022-12-08T02:09:22.670Z,9.05
2022-12-08T02:12:25.464Z,11.90
2022-12-08T02:15:37.932Z,10.03
2022-12-08T02:19:29.870Z,9.27
2022-12-08T02:22:29.303Z,11.50
2022-12-08T02:25:41.094Z,10.60
2022-12-08T02:29:03.543Z,9.43
2022-12-08T02:32:24.587Z,8.53
2022-12-08T02:35:33.304Z,9.50
2022-12-08T02:38:43.150Z,9.63
2022-12-08T02:41:49.085Z,7.40
2022-12-08T02:44:55.670Z,7.90
2022-12-08T02:47:59.589Z,9.57
2022-12-08T02:54:06.182Z,7.65
2022-12-08T02:57:20.010Z,7.83
2022-12-08T03:00:24.001Z,8.30
2022-12-08T03:03:33.028Z,11.90
2022-12-08T03:06:43.925Z,8.70
2022-12-08T03:09:49.913Z,9.60
2022-12-08T03:12:57.290Z,12.53
2022-12-08T03:16:04.571Z,7.87
2022-12-08T03:19:10.336Z,7.63
2022-12-08T03:22:15.011Z,9.73
2022-12-08T03:25:20.894Z,11.50
2022-12-08T03:28:23.842Z,12.33
2022-12-08T03:31:28.433Z,8.55
2022-12-08T03:34:31.845Z,6.80
2022-12-08T03:37:38.077Z,9.68
2022-12-08T03:40:41.258Z,8.00
2022-12-08T03:43:43.987Z,7.80
2022-12-08T03:46:46.899Z,8.17
2022-12-08T03:49:49.534Z,9.70
2022-12-08T03:52:53.639Z,8.23
2022-12-08T03:55:56.281Z,9.97
2022-12-08T03:58:59.126Z,10.30
2022-12-08T04:02:01.865Z,9.33
2022-12-08T04:05:05.439Z,8.40
2022-12-08T04:08:10.392Z,12.90
2022-12-08T04:11:13.315Z,10.47
2022-12-08T04:14:18.017Z,9.77
2022-12-08T04:17:20.623Z,10.67
2022-12-08T04:20:23.300Z,11.37
2022-12-08T04:23:27.433Z,10.43
2022-12-08T04:26:30.856Z,9.87
2022-12-08T04:29:33.831Z,13.18
2022-12-08T04:32:36.610Z,11.40
2022-12-08T04:35:39.294Z,13.57
2022-12-08T04:38:43.336Z,12.43
2022-12-08T04:41:46.130Z,10.90
2022-12-08T04:44:48.958Z,9.77
2022-12-08T04:47:51.915Z,12.00
2022-12-08T04:50:54.738Z,9.45
2022-12-08T04:53:59.084Z,10.57
2022-12-08T04:57:01.685Z,8.53
2022-12-08T05:00:06.606Z,11.67
2022-12-08T05:03:09.742Z,9.27
2022-12-08T05:06:14.582Z,10.00
2022-12-08T05:09:18.872Z,12.53
2022-12-08T05:12:21.558Z,11.10
2022-12-08T05:15:24.372Z,11.03
2022-12-08T05:18:27.429Z,11.60
2022-12-08T05:21:30.155Z,9.27
2022-12-08T05:24:34.281Z,7.67
2022-12-08T05:27:38.039Z,10.33
2022-12-08T05:30:41.198Z,8.80
2022-12-08T05:33:44.577Z,8.52
2022-12-08T05:36:47.481Z,12.65
2022-12-08T05:39:51.399Z,8.07
2022-12-08T05:42:54.271Z,8.33
2022-12-08T05:45:56.987Z,9.27
2022-12-08T05:49:00.738Z,8.73
2022-12-08T05:52:03.375Z,10.32
2022-12-08T05:55:08.321Z,8.80
2022-12-08T05:58:13.919Z,7.67
2022-12-08T06:01:24.575Z,9.67
2022-12-08T06:04:27.931Z,10.40
2022-12-08T06:07:30.768Z,8.60
2022-12-08T06:10:35.236Z,9.10
2022-12-08T06:13:38.091Z,8.33
2022-12-08T06:16:41.149Z,9.57
2022-12-08T06:19:44.026Z,8.25
2022-12-08T06:22:46.821Z,9.43
2022-12-08T06:25:51.239Z,8.77
2022-12-08T06:28:54.374Z,15.03
2022-12-08T06:31:57.282Z,10.10
2022-12-08T06:35:00.193Z,7.60
2022-12-08T06:38:03.204Z,14.52
2022-12-08T06:41:08.045Z,9.38
2022-12-08T06:44:10.759Z,7.83
2022-12-08T06:47:13.676Z,9.53
2022-12-08T06:50:17.832Z,10.50
2022-12-08T06:53:20.671Z,7.53
2022-12-08T06:56:28.127Z,9.67
2022-12-08T06:59:31.166Z,9.07
2022-12-08T07:02:34.446Z,8.13
2022-12-08T07:05:37.492Z,9.38
2022-12-08T07:08:40.579Z,16.40
2022-12-08T07:11:45.957Z,9.43
2022-12-08T07:14:48.590Z,8.87
2022-12-08T07:17:57.896Z,10.40
2022-12-08T07:21:07.047Z,9.53
2022-12-08T07:24:10.069Z,11.53
2022-12-08T07:27:16.715Z,10.13
2022-12-08T07:30:19.746Z,10.50
2022-12-08T07:33:22.408Z,10.82
2022-12-08T07:36:25.672Z,9.07
2022-12-08T07:39:28.742Z,8.70
2022-12-08T07:42:33.100Z,8.68
2022-12-08T07:45:35.711Z,9.70
2022-12-08T07:48:38.558Z,9.70
2022-12-08T07:51:41.256Z,13.57
2022-12-08T07:54:44.052Z,9.60
2022-12-08T07:57:48.199Z,11.47
2022-12-08T08:00:51.070Z,10.93
2022-12-08T08:03:54.925Z,10.40
2022-12-08T08:10:00.386Z,14.70
2022-12-08T08:13:04.289Z,8.63
2022-12-08T08:16:08.074Z,7.90
2022-12-08T08:19:11.020Z,9.50
2022-12-08T08:22:13.772Z,12.30
2022-12-08T08:25:17.424Z,11.57
2022-12-08T08:28:21.703Z,8.63
2022-12-08T08:31:26.087Z,10.87
2022-12-08T08:34:29.059Z,10.10
2022-12-08T08:37:32.392Z,10.13
2022-12-08T08:40:37.846Z,12.00
2022-12-08T08:43:42.032Z,10.83
2022-12-08T08:46:44.991Z,10.20
2022-12-08T08:49:47.624Z,12.95
2022-12-08T08:52:50.794Z,10.10
2022-12-08T08:55:53.376Z,11.45
2022-12-08T08:58:57.700Z,15.30
2022-12-08T09:02:00.693Z,14.10
2022-12-08T09:05:03.455Z,14.50
2022-12-08T09:08:06.344Z,12.73
2022-12-08T09:11:09.440Z,15.83
2022-12-08T09:14:15.392Z,16.92
2022-12-08T09:17:18.350Z,15.30
2022-12-08T09:20:21.229Z,15.52
2022-12-08T09:23:24.092Z,15.33
2022-12-08T09:26:28.086Z,15.43
2022-12-08T09:29:36.060Z,13.80
2022-12-08T09:32:39.618Z,16.17
2022-12-08T09:35:42.384Z,17.00
2022-12-08T09:38:46.621Z,21.27
2022-12-08T09:41:50.804Z,14.00
2022-12-08T09:45:00.092Z,16.37
2022-12-08T09:48:09.654Z,16.13
2022-12-08T09:51:13.817Z,13.77
2022-12-08T09:54:19.942Z,17.00
2022-12-08T09:57:24.187Z,12.07
2022-12-08T10:00:28.480Z,18.20
2022-12-08T10:03:32.184Z,16.07
2022-12-08T10:06:41.372Z,19.10
2022-12-08T10:09:47.924Z,18.77
2022-12-08T10:12:56.404Z,14.63
2022-12-08T10:16:11.902Z,13.27
2022-12-08T10:19:21.368Z,12.63
2022-12-08T10:22:25.642Z,12.23
2022-12-08T10:25:33.561Z,10.83
2022-12-08T10:28:41.439Z,13.97
2022-12-08T10:31:48.826Z,13.23
2022-12-08T10:35:06.282Z,12.60
2022-12-08T10:38:19.027Z,8.50
2022-12-08T10:41:21.866Z,9.83
2022-12-08T10:44:24.720Z,6.30
2022-12-08T10:47:29.992Z,7.60
2022-12-08T10:50:35.473Z,6.37
2022-12-08T10:53:48.127Z,8.37
2022-12-08T10:56:55.754Z,8.37
2022-12-08T10:59:58.891Z,6.00
2022-12-08T11:03:05.242Z,20.27
2022-12-08T11:06:16.453Z,10.10
2022-12-08T11:09:48.956Z,7.27
2022-12-08T11:12:52.092Z,5.47
2022-12-08T11:15:56.347Z,5.45
2022-12-08T11:19:06.876Z,4.73
2022-12-08T11:22:22.481Z,6.63
2022-12-08T11:25:26.394Z,5.50
2022-12-08T11:28:29.702Z,6.17
2022-12-08T11:31:35.591Z,5.65
2022-12-08T11:34:43.175Z,5.00
2022-12-08T11:37:46.030Z,4.33
2022-12-08T11:40:51.741Z,5.20
2022-12-08T11:43:58.368Z,4.17
2022-12-08T11:47:03.455Z,6.00
2022-12-08T11:50:20.247Z,4.87
2022-12-08T11:53:27.705Z,7.33
2022-12-08T11:56:35.087Z,7.40
2022-12-08T11:59:41.702Z,4.80
2022-12-08T12:02:48.111Z,4.80
2022-12-08T12:06:18.191Z,5.57
2022-12-08T12:09:36.759Z,6.13
2022-12-08T12:12:52.439Z,4.97
2022-12-08T12:16:19.763Z,5.83
2022-12-08T12:19:24.086Z,5.30
2022-12-08T12:22:32.031Z,3.73
2022-12-08T12:25:36.341Z,4.67
2022-12-08T12:28:42.891Z,5.40
2022-12-08T12:31:51.167Z,5.43
2022-12-08T12:34:56.410Z,4.43
2022-12-08T12:38:05.060Z,5.57
2022-12-08T12:41:09.385Z,4.93
2022-12-08T12:44:40.182Z,6.40
2022-12-08T12:47:52.391Z,4.13
2022-12-08T12:50:58.632Z,5.17
2022-12-08T12:54:22.077Z,3.30
2022-12-08T12:57:26.729Z,5.63
2022-12-08T13:00:29.885Z,6.13
2022-12-08T13:03:32.828Z,4.30
2022-12-08T13:06:39.376Z,4.22
2022-12-08T13:09:58.264Z,4.57
2022-12-08T13:13:17.726Z,4.80
2022-12-08T13:16:23.468Z,5.83
2022-12-08T13:19:27.040Z,4.37
2022-12-08T13:22:52.335Z,7.43
2022-12-08T13:26:14.851Z,4.17
2022-12-08T13:29:20.694Z,5.47
2022-12-08T13:33:17.149Z,4.90
2022-12-08T13:36:23.488Z,4.53
2022-12-08T13:39:30.463Z,3.80
2022-12-08T13:42:38.494Z,4.63
2022-12-08T13:46:48.769Z,5.40
2022-12-08T13:50:54.862Z,6.22
2022-12-08T13:59:30.442Z,3.70
2022-12-08T14:02:35.822Z,3.93
2022-12-08T14:06:10.977Z,3.70
2022-12-08T14:09:11.023Z,5.47
2022-12-08T14:12:19.458Z,6.33
2022-12-08T14:15:24.228Z,6.53
2022-12-08T14:18:28.912Z,5.13
2022-12-08T14:21:36.021Z,5.47
2022-12-08T14:24:39.580Z,6.83
2022-12-08T14:27:42.947Z,5.95
2022-12-08T14:30:49.808Z,6.65
2022-12-08T14:33:56.353Z,6.90
2022-12-08T14:37:00.124Z,6.33
2022-12-08T14:40:23.126Z,7.40
2022-12-08T14:43:27.755Z,6.35
2022-12-08T14:46:31.936Z,5.13
2022-12-08T14:49:36.198Z,3.60
2022-12-08T14:52:43.819Z,6.83
2022-12-08T14:55:48.662Z,8.70
2022-12-08T14:58:52.475Z,8.27
2022-12-08T15:05:14.331Z,4.10
2022-12-08T15:08:17.344Z,6.10
2022-12-08T15:11:31.225Z,6.97
2022-12-08T15:14:35.730Z,11.30
2022-12-08T15:17:43.345Z,15.30
2022-12-08T15:20:47.906Z,5.40
2022-12-08T15:23:52.279Z,7.30
2022-12-08T15:26:55.202Z,8.30
2022-12-08T15:29:58.109Z,7.30
2022-12-08T15:33:02.684Z,5.25
2022-12-08T15:36:05.959Z,4.17
2022-12-08T15:39:19.329Z,4.72
2022-12-08T15:42:22.192Z,7.65
2022-12-08T15:45:27.980Z,4.82
2022-12-08T15:48:32.322Z,7.27
2022-12-08T15:51:36.868Z,5.57
2022-12-08T15:54:39.891Z,6.47
2022-12-08T16:01:08.444Z,8.23
2022-12-08T16:04:55.383Z,7.57
2022-12-08T16:07:38.578Z,8.83
2022-12-08T16:11:24.185Z,3.88
2022-12-08T16:14:35.275Z,6.35
2022-12-08T16:17:27.179Z,7.13
2022-12-08T16:21:05.182Z,5.33
2022-12-08T16:30:20.455Z,6.97
2022-12-08T16:33:23.976Z,6.57
2022-12-08T16:36:28.002Z,9.05
2022-12-08T16:39:30.855Z,6.60
2022-12-08T16:42:40.637Z,9.80
2022-12-08T16:45:45.185Z,6.20
2022-12-08T16:48:48.307Z,5.07
2022-12-08T16:51:52.684Z,7.50
2022-12-08T16:54:55.322Z,7.50
2022-12-08T16:57:57.978Z,6.57
2022-12-08T17:01:00.768Z,5.97
2022-12-08T17:07:27.801Z,6.67
2022-12-08T17:10:34.333Z,6.57
2022-12-08T17:13:38.038Z,8.37
2022-12-08T17:16:40.834Z,7.50
2022-12-08T17:19:44.514Z,8.85
2022-12-08T17:22:48.987Z,6.38
2022-12-08T17:26:00.951Z,10.87
2022-12-08T17:29:04.582Z,8.27
2022-12-08T17:32:07.556Z,8.85
2022-12-08T17:35:11.574Z,7.80
2022-12-08T17:38:16.018Z,5.37
2022-12-08T17:41:20.064Z,7.87
2022-12-08T17:44:22.937Z,7.33
2022-12-08T17:47:26.078Z,8.17
2022-12-08T17:50:28.846Z,7.95
2022-12-08T17:53:37.218Z,9.37
2022-12-08T17:56:40.971Z,10.50
2022-12-08T17:59:44.851Z,21.83
2022-12-08T18:02:47.639Z,10.95
2022-12-08T18:05:50.958Z,7.97
2022-12-08T18:08:55.092Z,8.57
2022-12-08T18:11:59.192Z,11.07
2022-12-08T18:15:01.858Z,10.17
2022-12-08T18:18:04.973Z,9.70
2022-12-08T18:21:08.325Z,7.97
2022-12-08T18:24:17.679Z,7.20
2022-12-08T18:27:21.095Z,8.00
2022-12-08T18:30:24.542Z,6.22
2022-12-08T18:33:28.118Z,7.60
2022-12-08T18:36:30.975Z,8.80
2022-12-08T18:39:35.102Z,8.30
2022-12-08T18:42:37.936Z,8.50
2022-12-08T18:45:40.874Z,6.07
2022-12-08T18:48:46.278Z,7.28
2022-12-08T18:51:48.973Z,12.70
2022-12-08T18:55:08.382Z,18.17
2022-12-08T18:58:11.981Z,21.07
2022-12-08T19:01:15.028Z,12.73
2022-12-08T19:04:28.447Z,8.02
2022-12-08T19:07:32.000Z,8.63
2022-12-08T19:10:38.039Z,6.95
2022-12-08T19:13:40.900Z,12.40
2022-12-08T19:16:43.753Z,13.33
2022-12-08T19:19:46.523Z,13.43
2022-12-08T19:22:49.824Z,38.23
2022-12-08T19:25:53.824Z,63.05
2022-12-08T19:28:56.775Z,46.07
2022-12-08T19:32:00.409Z,29.33
2022-12-08T19:35:07.132Z,24.42
2022-12-08T19:38:09.913Z,22.23
2022-12-08T19:41:31.426Z,15.60
2022-12-08T19:44:51.970Z,20.63
2022-12-08T19:47:55.602Z,16.83
2022-12-08T19:50:58.291Z,10.50
2022-12-08T19:54:00.912Z,9.57
2022-12-08T19:57:05.078Z,11.40
2022-12-08T20:00:10.471Z,10.47
2022-12-08T20:03:15.988Z,10.47
2022-12-08T20:06:19.165Z,13.93
2022-12-08T20:09:22.368Z,17.90
2022-12-08T20:12:26.395Z,13.70
2022-12-08T20:15:29.047Z,15.20
2022-12-08T20:18:31.747Z,11.23
2022-12-08T20:21:34.516Z,11.33
2022-12-08T20:24:37.487Z,14.53
2022-12-08T20:27:42.647Z,17.63
2022-12-08T20:30:47.100Z,12.37
2022-12-08T20:33:49.920Z,13.17
2022-12-08T20:36:52.682Z,14.63
2022-12-08T20:39:55.409Z,8.83
2022-12-08T20:42:59.982Z,12.03
2022-12-08T20:46:07.495Z,10.07
2022-12-08T20:49:10.490Z,11.20
2022-12-08T20:52:13.460Z,15.07
2022-12-08T20:55:16.264Z,15.57
2022-12-08T20:58:20.602Z,29.33
2022-12-08T21:01:25.385Z,60.33
2022-12-08T21:04:28.565Z,51.33
2022-12-08T21:07:32.330Z,38.78
2022-12-08T21:10:39.364Z,52.70
2022-12-08T21:13:48.235Z,86.67
2022-12-08T21:16:51.189Z,47.93
2022-12-08T21:19:54.274Z,30.63
2022-12-08T21:22:56.997Z,27.40
2022-12-08T21:25:59.730Z,24.80
2022-12-08T21:29:03.990Z,55.97
2022-12-08T21:32:07.024Z,108.63
2022-12-08T21:35:10.730Z,136.90
2022-12-08T21:38:14.002Z,102.35
2022-12-08T21:41:40.864Z,88.32
2022-12-08T21:44:45.066Z,64.93
2022-12-08T21:47:49.461Z,41.50
2022-12-08T21:50:53.428Z,29.10
2022-12-08T21:56:59.008Z,15.70
2022-12-08T22:00:03.540Z,14.15
2022-12-08T22:03:07.916Z,13.13
2022-12-08T22:06:12.325Z,16.80
2022-12-08T22:09:15.285Z,12.70
2022-12-08T22:12:18.622Z,12.68
2022-12-08T22:15:22.723Z,13.23
2022-12-08T22:18:25.834Z,14.67
2022-12-08T22:21:28.606Z,11.85
2022-12-08T22:24:31.857Z,9.83
2022-12-08T22:27:35.046Z,10.65
2022-12-08T22:30:39.780Z,10.10
2022-12-08T22:33:43.488Z,10.60
2022-12-08T22:36:46.455Z,7.88
2022-12-08T22:39:49.179Z,11.05
2022-12-08T22:42:52.002Z,9.23
2022-12-08T22:45:56.203Z,12.33
2022-12-08T22:48:59.202Z,13.80
2022-12-08T22:52:01.921Z,8.63
2022-12-08T22:55:05.075Z,12.33
2022-12-08T22:58:08.058Z,12.63
2022-12-08T23:01:22.627Z,17.60
2022-12-08T23:04:25.356Z,13.37
2022-12-08T23:07:28.499Z,8.80
2022-12-08T23:10:31.226Z,10.63
2022-12-08T23:13:33.847Z,8.50
2022-12-08T23:16:38.435Z,10.60
2022-12-08T23:19:41.309Z,10.50
2022-12-08T23:22:44.107Z,9.57
2022-12-08T23:25:46.894Z,10.33
2022-12-08T23:28:50.098Z,7.57
2022-12-08T23:31:54.320Z,9.13
2022-12-08T23:34:57.175Z,16.00
2022-12-08T23:37:59.981Z,9.63
2022-12-08T23:41:03.417Z,10.30
2022-12-08T23:44:06.587Z,11.05
2022-12-08T23:47:10.881Z,12.73
2022-12-08T23:50:13.643Z,11.07
2022-12-08T23:53:16.686Z,9.20
2022-12-08T23:56:22.109Z,11.40
2022-12-08T23:59:26.114Z,11.23
